sensor_id;sensor_type;location;lat;lon;timestamp;P1;durP1;ratioP1;P2;durP2;ratioP2
37641;SDS011;23486;51.956;5.888;2023-07-16T00:00:27;4.55;;;0.90;;
37641;SDS011;23486;51.956;5.888;2023-07-16T00:02:53;5.75;;;0.80;;
37641;SDS011;23486;51.956;5.888;2023-07-16T00:05:20;6.63;;;1.02;;
37641;SDS011;23486;51.956;5.888;2023-07-16T00:07:46;5.55;;;0.90;;
37641;SDS011;23486;51.956;5.888;2023-07-16T00:10:12;3.33;;;0.80;;
37641;SDS011;23486;51.956;5.888;2023-07-16T00:12:38;4.75;;;0.80;;
37641;SDS011;23486;51.956;5.888;2023-07-16T00:15:04;5.30;;;0.90;;
37641;SDS011;23486;51.956;5.888;2023-07-16T00:17:31;5.40;;;1.08;;
37641;SDS011;23486;51.956;5.888;2023-07-16T00:19:57;4.03;;;0.70;;
37641;SDS011;23486;51.956;5.888;2023-07-16T00:22:23;5.53;;;1.17;;
37641;SDS011;23486;51.956;5.888;2023-07-16T00:24:48;2.80;;;0.80;;
37641;SDS011;23486;51.956;5.888;2023-07-16T00:27:15;5.70;;;1.10;;
37641;SDS011;23486;51.956;5.888;2023-07-16T00:29:41;5.95;;;0.95;;
37641;SDS011;23486;51.956;5.888;2023-07-16T00:32:06;4.93;;;0.90;;
37641;SDS011;23486;51.956;5.888;2023-07-16T00:34:32;5.00;;;1.05;;
37641;SDS011;23486;51.956;5.888;2023-07-16T00:36:58;4.07;;;1.10;;
37641;SDS011;23486;51.956;5.888;2023-07-16T00:39:27;3.10;;;0.73;;
37641;SDS011;23486;51.956;5.888;2023-07-16T00:41:53;6.00;;;1.23;;
37641;SDS011;23486;51.956;5.888;2023-07-16T00:44:19;4.32;;;1.35;;
37641;SDS011;23486;51.956;5.888;2023-07-16T00:46:47;10.68;;;1.83;;
37641;SDS011;23486;51.956;5.888;2023-07-16T00:49:12;3.90;;;1.23;;
37641;SDS011;23486;51.956;5.888;2023-07-16T00:51:38;7.13;;;1.67;;
37641;SDS011;23486;51.956;5.888;2023-07-16T00:54:04;4.97;;;1.50;;
37641;SDS011;23486;51.956;5.888;2023-07-16T00:56:30;4.63;;;1.10;;
37641;SDS011;23486;51.956;5.888;2023-07-16T00:58:56;7.25;;;1.77;;
37641;SDS011;23486;51.956;5.888;2023-07-16T01:01:22;6.13;;;1.30;;
37641;SDS011;23486;51.956;5.888;2023-07-16T01:03:48;5.05;;;1.10;;
37641;SDS011;23486;51.956;5.888;2023-07-16T01:06:29;3.22;;;0.98;;
37641;SDS011;23486;51.956;5.888;2023-07-16T01:09:08;6.60;;;1.52;;
37641;SDS011;23486;51.956;5.888;2023-07-16T01:11:40;5.05;;;1.25;;
37641;SDS011;23486;51.956;5.888;2023-07-16T01:14:07;6.90;;;1.58;;
37641;SDS011;23486;51.956;5.888;2023-07-16T01:16:33;4.13;;;1.25;;
37641;SDS011;23486;51.956;5.888;2023-07-16T01:18:59;9.02;;;1.52;;
37641;SDS011;23486;51.956;5.888;2023-07-16T01:21:25;6.15;;;1.30;;
37641;SDS011;23486;51.956;5.888;2023-07-16T01:27:22;6.43;;;1.50;;
37641;SDS011;23486;51.956;5.888;2023-07-16T01:30:06;4.18;;;0.90;;
37641;SDS011;23486;51.956;5.888;2023-07-16T01:32:36;4.30;;;0.90;;
37641;SDS011;23486;51.956;5.888;2023-07-16T01:35:03;6.32;;;1.23;;
37641;SDS011;23486;51.956;5.888;2023-07-16T01:37:30;5.28;;;1.00;;
37641;SDS011;23486;51.956;5.888;2023-07-16T01:39:57;6.13;;;1.08;;
37641;SDS011;23486;51.956;5.888;2023-07-16T01:42:22;5.80;;;1.08;;
37641;SDS011;23486;51.956;5.888;2023-07-16T01:44:48;5.78;;;0.90;;
37641;SDS011;23486;51.956;5.888;2023-07-16T01:47:24;6.53;;;1.02;;
37641;SDS011;23486;51.956;5.888;2023-07-16T01:49:54;5.10;;;0.93;;
37641;SDS011;23486;51.956;5.888;2023-07-16T01:52:20;5.35;;;1.08;;
37641;SDS011;23486;51.956;5.888;2023-07-16T01:54:46;7.10;;;1.15;;
37641;SDS011;23486;51.956;5.888;2023-07-16T01:57:12;6.63;;;1.40;;
37641;SDS011;23486;51.956;5.888;2023-07-16T01:59:37;7.50;;;1.52;;
37641;SDS011;23486;51.956;5.888;2023-07-16T02:02:03;5.03;;;1.35;;
37641;SDS011;23486;51.956;5.888;2023-07-16T02:04:29;5.57;;;1.00;;
37641;SDS011;23486;51.956;5.888;2023-07-16T02:06:55;4.90;;;0.90;;
37641;SDS011;23486;51.956;5.888;2023-07-16T02:09:20;8.10;;;1.13;;
37641;SDS011;23486;51.956;5.888;2023-07-16T02:11:46;6.82;;;1.67;;
37641;SDS011;23486;51.956;5.888;2023-07-16T02:14:12;4.75;;;1.17;;
37641;SDS011;23486;51.956;5.888;2023-07-16T02:16:39;5.97;;;0.98;;
37641;SDS011;23486;51.956;5.888;2023-07-16T02:19:04;5.90;;;1.20;;
37641;SDS011;23486;51.956;5.888;2023-07-16T02:21:30;5.00;;;1.33;;
37641;SDS011;23486;51.956;5.888;2023-07-16T02:23:56;6.60;;;1.77;;
37641;SDS011;23486;51.956;5.888;2023-07-16T02:26:21;6.85;;;1.50;;
37641;SDS011;23486;51.956;5.888;2023-07-16T02:28:47;5.00;;;1.25;;
37641;SDS011;23486;51.956;5.888;2023-07-16T02:31:13;7.55;;;1.08;;
37641;SDS011;23486;51.956;5.888;2023-07-16T02:33:38;8.95;;;1.73;;
37641;SDS011;23486;51.956;5.888;2023-07-16T02:36:04;6.88;;;1.48;;
37641;SDS011;23486;51.956;5.888;2023-07-16T02:38:31;4.97;;;1.13;;
37641;SDS011;23486;51.956;5.888;2023-07-16T02:40:57;4.78;;;1.08;;
37641;SDS011;23486;51.956;5.888;2023-07-16T02:43:22;4.13;;;1.05;;
37641;SDS011;23486;51.956;5.888;2023-07-16T02:45:48;9.13;;;1.13;;
37641;SDS011;23486;51.956;5.888;2023-07-16T02:48:13;4.35;;;0.80;;
37641;SDS011;23486;51.956;5.888;2023-07-16T02:50:39;8.02;;;1.23;;
37641;SDS011;23486;51.956;5.888;2023-07-16T02:53:05;6.55;;;0.80;;
37641;SDS011;23486;51.956;5.888;2023-07-16T02:55:32;5.35;;;1.10;;
37641;SDS011;23486;51.956;5.888;2023-07-16T02:57:59;4.80;;;1.02;;
37641;SDS011;23486;51.956;5.888;2023-07-16T03:00:29;5.60;;;1.30;;
37641;SDS011;23486;51.956;5.888;2023-07-16T03:02:55;5.18;;;1.20;;
37641;SDS011;23486;51.956;5.888;2023-07-16T03:05:21;3.65;;;1.10;;
37641;SDS011;23486;51.956;5.888;2023-07-16T03:07:46;6.80;;;1.20;;
37641;SDS011;23486;51.956;5.888;2023-07-16T03:10:12;4.65;;;0.93;;
37641;SDS011;23486;51.956;5.888;2023-07-16T03:12:37;3.75;;;0.70;;
37641;SDS011;23486;51.956;5.888;2023-07-16T03:15:03;5.25;;;0.90;;
37641;SDS011;23486;51.956;5.888;2023-07-16T03:17:30;8.30;;;0.95;;
37641;SDS011;23486;51.956;5.888;2023-07-16T03:19:56;5.43;;;1.25;;
37641;SDS011;23486;51.956;5.888;2023-07-16T03:22:21;3.67;;;0.95;;
37641;SDS011;23486;51.956;5.888;2023-07-16T03:24:47;7.72;;;1.23;;
37641;SDS011;23486;51.956;5.888;2023-07-16T03:27:12;7.15;;;1.55;;
37641;SDS011;23486;51.956;5.888;2023-07-16T03:29:38;4.15;;;1.23;;
37641;SDS011;23486;51.956;5.888;2023-07-16T03:32:04;5.47;;;1.38;;
37641;SDS011;23486;51.956;5.888;2023-07-16T03:34:30;5.95;;;1.40;;
37641;SDS011;23486;51.956;5.888;2023-07-16T03:36:55;8.40;;;2.08;;
37641;SDS011;23486;51.956;5.888;2023-07-16T03:39:21;5.80;;;1.25;;
37641;SDS011;23486;51.956;5.888;2023-07-16T03:41:47;9.60;;;2.13;;
37641;SDS011;23486;51.956;5.888;2023-07-16T03:44:12;8.35;;;1.80;;
37641;SDS011;23486;51.956;5.888;2023-07-16T03:46:38;6.47;;;1.13;;
37641;SDS011;23486;51.956;5.888;2023-07-16T03:49:06;5.50;;;1.65;;
37641;SDS011;23486;51.956;5.888;2023-07-16T03:51:32;3.97;;;1.40;;
37641;SDS011;23486;51.956;5.888;2023-07-16T03:53:58;7.57;;;2.45;;
37641;SDS011;23486;51.956;5.888;2023-07-16T03:56:23;6.43;;;2.10;;
37641;SDS011;23486;51.956;5.888;2023-07-16T03:58:49;7.82;;;1.50;;
37641;SDS011;23486;51.956;5.888;2023-07-16T04:01:14;6.72;;;1.75;;
37641;SDS011;23486;51.956;5.888;2023-07-16T04:03:40;6.70;;;1.77;;
37641;SDS011;23486;51.956;5.888;2023-07-16T04:06:08;5.32;;;1.83;;
37641;SDS011;23486;51.956;5.888;2023-07-16T04:08:34;8.23;;;1.95;;
37641;SDS011;23486;51.956;5.888;2023-07-16T04:11:01;6.10;;;1.52;;
37641;SDS011;23486;51.956;5.888;2023-07-16T04:13:27;5.28;;;1.48;;
37641;SDS011;23486;51.956;5.888;2023-07-16T04:15:53;4.32;;;1.30;;
37641;SDS011;23486;51.956;5.888;2023-07-16T04:18:20;5.93;;;1.60;;
37641;SDS011;23486;51.956;5.888;2023-07-16T04:20:56;6.47;;;1.73;;
37641;SDS011;23486;51.956;5.888;2023-07-16T04:23:22;4.57;;;1.20;;
37641;SDS011;23486;51.956;5.888;2023-07-16T04:25:51;7.82;;;2.08;;
37641;SDS011;23486;51.956;5.888;2023-07-16T04:28:18;7.20;;;1.77;;
37641;SDS011;23486;51.956;5.888;2023-07-16T04:30:43;6.13;;;1.60;;
37641;SDS011;23486;51.956;5.888;2023-07-16T04:33:09;6.97;;;1.77;;
37641;SDS011;23486;51.956;5.888;2023-07-16T04:35:35;8.52;;;1.65;;
37641;SDS011;23486;51.956;5.888;2023-07-16T04:38:01;8.00;;;2.28;;
37641;SDS011;23486;51.956;5.888;2023-07-16T04:40:29;6.78;;;2.10;;
37641;SDS011;23486;51.956;5.888;2023-07-16T04:42:55;10.40;;;2.70;;
37641;SDS011;23486;51.956;5.888;2023-07-16T04:45:21;6.50;;;2.17;;
37641;SDS011;23486;51.956;5.888;2023-07-16T04:47:46;10.43;;;2.55;;
37641;SDS011;23486;51.956;5.888;2023-07-16T04:50:12;7.85;;;2.45;;
37641;SDS011;23486;51.956;5.888;2023-07-16T04:52:38;8.88;;;3.03;;
37641;SDS011;23486;51.956;5.888;2023-07-16T04:55:03;6.05;;;2.38;;
37641;SDS011;23486;51.956;5.888;2023-07-16T04:57:29;7.97;;;3.13;;
37641;SDS011;23486;51.956;5.888;2023-07-16T04:59:55;12.43;;;3.10;;
37641;SDS011;23486;51.956;5.888;2023-07-16T05:02:21;7.70;;;2.67;;
37641;SDS011;23486;51.956;5.888;2023-07-16T05:04:46;8.07;;;2.58;;
37641;SDS011;23486;51.956;5.888;2023-07-16T05:07:14;6.45;;;2.35;;
37641;SDS011;23486;51.956;5.888;2023-07-16T05:09:41;10.77;;;3.03;;
37641;SDS011;23486;51.956;5.888;2023-07-16T05:12:10;9.48;;;2.85;;
37641;SDS011;23486;51.956;5.888;2023-07-16T05:14:45;7.05;;;2.85;;
37641;SDS011;23486;51.956;5.888;2023-07-16T05:17:12;7.97;;;3.25;;
37641;SDS011;23486;51.956;5.888;2023-07-16T05:19:38;11.23;;;3.83;;
37641;SDS011;23486;51.956;5.888;2023-07-16T05:22:04;8.90;;;3.63;;
37641;SDS011;23486;51.956;5.888;2023-07-16T05:24:30;8.25;;;2.53;;
37641;SDS011;23486;51.956;5.888;2023-07-16T05:26:56;8.85;;;3.08;;
37641;SDS011;23486;51.956;5.888;2023-07-16T05:29:22;10.75;;;3.58;;
37641;SDS011;23486;51.956;5.888;2023-07-16T05:31:48;10.02;;;3.20;;
37641;SDS011;23486;51.956;5.888;2023-07-16T05:34:14;9.55;;;3.20;;
37641;SDS011;23486;51.956;5.888;2023-07-16T05:36:40;8.02;;;3.13;;
37641;SDS011;23486;51.956;5.888;2023-07-16T05:39:07;9.55;;;3.15;;
37641;SDS011;23486;51.956;5.888;2023-07-16T05:41:33;8.63;;;3.38;;
37641;SDS011;23486;51.956;5.888;2023-07-16T05:43:59;10.50;;;3.20;;
37641;SDS011;23486;51.956;5.888;2023-07-16T05:46:24;9.93;;;3.55;;
37641;SDS011;23486;51.956;5.888;2023-07-16T05:48:51;11.45;;;3.80;;
37641;SDS011;23486;51.956;5.888;2023-07-16T05:51:17;10.70;;;4.10;;
37641;SDS011;23486;51.956;5.888;2023-07-16T05:53:42;10.48;;;4.20;;
37641;SDS011;23486;51.956;5.888;2023-07-16T05:56:08;7.25;;;3.58;;
37641;SDS011;23486;51.956;5.888;2023-07-16T05:58:33;6.88;;;3.47;;
37641;SDS011;23486;51.956;5.888;2023-07-16T06:00:59;10.95;;;3.20;;
37641;SDS011;23486;51.956;5.888;2023-07-16T06:03:24;14.02;;;3.80;;
37641;SDS011;23486;51.956;5.888;2023-07-16T06:05:50;11.73;;;4.05;;
37641;SDS011;23486;51.956;5.888;2023-07-16T06:08:16;12.80;;;3.97;;
37641;SDS011;23486;51.956;5.888;2023-07-16T06:10:41;8.25;;;3.25;;
37641;SDS011;23486;51.956;5.888;2023-07-16T06:13:07;8.93;;;4.13;;
37641;SDS011;23486;51.956;5.888;2023-07-16T06:15:32;14.70;;;4.93;;
37641;SDS011;23486;51.956;5.888;2023-07-16T06:17:58;11.40;;;4.30;;
37641;SDS011;23486;51.956;5.888;2023-07-16T06:20:24;8.23;;;4.07;;
37641;SDS011;23486;51.956;5.888;2023-07-16T06:22:49;16.92;;;4.53;;
37641;SDS011;23486;51.956;5.888;2023-07-16T06:25:15;11.18;;;4.82;;
37641;SDS011;23486;51.956;5.888;2023-07-16T06:27:40;8.77;;;4.13;;
37641;SDS011;23486;51.956;5.888;2023-07-16T06:30:06;11.20;;;4.65;;
37641;SDS011;23486;51.956;5.888;2023-07-16T06:32:32;10.65;;;4.20;;
37641;SDS011;23486;51.956;5.888;2023-07-16T06:34:58;12.70;;;5.05;;
37641;SDS011;23486;51.956;5.888;2023-07-16T06:37:23;9.15;;;4.70;;
37641;SDS011;23486;51.956;5.888;2023-07-16T06:39:50;12.80;;;4.85;;
37641;SDS011;23486;51.956;5.888;2023-07-16T06:42:16;10.77;;;4.60;;
37641;SDS011;23486;51.956;5.888;2023-07-16T06:44:41;9.40;;;4.63;;
37641;SDS011;23486;51.956;5.888;2023-07-16T06:47:07;10.57;;;4.10;;
37641;SDS011;23486;51.956;5.888;2023-07-16T06:49:33;9.07;;;4.38;;
37641;SDS011;23486;51.956;5.888;2023-07-16T06:52:00;13.30;;;4.65;;
37641;SDS011;23486;51.956;5.888;2023-07-16T06:54:27;11.40;;;4.72;;
37641;SDS011;23486;51.956;5.888;2023-07-16T06:56:52;10.23;;;4.80;;
37641;SDS011;23486;51.956;5.888;2023-07-16T06:59:18;12.30;;;3.88;;
37641;SDS011;23486;51.956;5.888;2023-07-16T07:01:43;8.30;;;4.63;;
37641;SDS011;23486;51.956;5.888;2023-07-16T07:04:09;9.55;;;4.25;;
37641;SDS011;23486;51.956;5.888;2023-07-16T07:06:35;9.27;;;3.80;;
37641;SDS011;23486;51.956;5.888;2023-07-16T07:09:00;10.32;;;4.25;;
37641;SDS011;23486;51.956;5.888;2023-07-16T07:11:26;7.68;;;4.25;;
37641;SDS011;23486;51.956;5.888;2023-07-16T07:13:52;9.93;;;4.25;;
37641;SDS011;23486;51.956;5.888;2023-07-16T07:16:18;10.35;;;4.32;;
37641;SDS011;23486;51.956;5.888;2023-07-16T07:18:44;8.68;;;4.18;;
37641;SDS011;23486;51.956;5.888;2023-07-16T07:21:10;11.60;;;4.45;;
37641;SDS011;23486;51.956;5.888;2023-07-16T07:23:35;9.15;;;4.93;;
37641;SDS011;23486;51.956;5.888;2023-07-16T07:26:01;8.35;;;4.22;;
37641;SDS011;23486;51.956;5.888;2023-07-16T07:28:27;9.43;;;4.70;;
37641;SDS011;23486;51.956;5.888;2023-07-16T07:30:53;11.60;;;5.03;;
37641;SDS011;23486;51.956;5.888;2023-07-16T07:33:19;10.32;;;5.05;;
37641;SDS011;23486;51.956;5.888;2023-07-16T07:35:45;7.93;;;4.63;;
37641;SDS011;23486;51.956;5.888;2023-07-16T07:38:10;11.35;;;5.25;;
37641;SDS011;23486;51.956;5.888;2023-07-16T07:40:36;12.23;;;5.22;;
37641;SDS011;23486;51.956;5.888;2023-07-16T07:43:01;9.35;;;4.53;;
37641;SDS011;23486;51.956;5.888;2023-07-16T07:45:27;8.63;;;4.35;;
37641;SDS011;23486;51.956;5.888;2023-07-16T07:47:53;11.43;;;4.88;;
37641;SDS011;23486;51.956;5.888;2023-07-16T07:50:18;11.07;;;5.13;;
37641;SDS011;23486;51.956;5.888;2023-07-16T07:52:44;8.50;;;4.30;;
37641;SDS011;23486;51.956;5.888;2023-07-16T07:55:09;11.73;;;3.97;;
37641;SDS011;23486;51.956;5.888;2023-07-16T07:57:35;14.40;;;5.13;;
37641;SDS011;23486;51.956;5.888;2023-07-16T08:00:01;8.23;;;3.88;;
37641;SDS011;23486;51.956;5.888;2023-07-16T08:02:26;10.65;;;4.35;;
37641;SDS011;23486;51.956;5.888;2023-07-16T08:04:52;11.57;;;4.88;;
37641;SDS011;23486;51.956;5.888;2023-07-16T08:07:19;10.68;;;4.10;;
37641;SDS011;23486;51.956;5.888;2023-07-16T08:09:45;13.88;;;5.32;;
37641;SDS011;23486;51.956;5.888;2023-07-16T08:12:11;11.95;;;4.78;;
37641;SDS011;23486;51.956;5.888;2023-07-16T08:14:37;12.02;;;4.60;;
37641;SDS011;23486;51.956;5.888;2023-07-16T08:17:02;10.02;;;4.72;;
37641;SDS011;23486;51.956;5.888;2023-07-16T08:19:28;11.13;;;4.45;;
37641;SDS011;23486;51.956;5.888;2023-07-16T08:21:55;9.02;;;4.57;;
37641;SDS011;23486;51.956;5.888;2023-07-16T08:24:20;10.25;;;5.30;;
37641;SDS011;23486;51.956;5.888;2023-07-16T08:26:46;10.15;;;4.53;;
37641;SDS011;23486;51.956;5.888;2023-07-16T08:29:11;11.68;;;5.18;;
37641;SDS011;23486;51.956;5.888;2023-07-16T08:31:37;11.50;;;5.10;;
37641;SDS011;23486;51.956;5.888;2023-07-16T08:34:03;8.00;;;3.83;;
37641;SDS011;23486;51.956;5.888;2023-07-16T08:36:28;9.63;;;4.80;;
37641;SDS011;23486;51.956;5.888;2023-07-16T08:38:54;7.15;;;3.83;;
37641;SDS011;23486;51.956;5.888;2023-07-16T08:41:20;12.82;;;4.53;;
37641;SDS011;23486;51.956;5.888;2023-07-16T08:43:46;8.85;;;3.78;;
37641;SDS011;23486;51.956;5.888;2023-07-16T08:46:15;9.70;;;4.43;;
37641;SDS011;23486;51.956;5.888;2023-07-16T08:48:40;8.98;;;4.43;;
37641;SDS011;23486;51.956;5.888;2023-07-16T08:51:06;8.02;;;3.78;;
37641;SDS011;23486;51.956;5.888;2023-07-16T08:53:34;6.90;;;3.83;;
37641;SDS011;23486;51.956;5.888;2023-07-16T08:56:00;9.52;;;3.80;;
37641;SDS011;23486;51.956;5.888;2023-07-16T08:58:27;8.35;;;3.45;;
37641;SDS011;23486;51.956;5.888;2023-07-16T09:00:53;9.52;;;3.95;;
37641;SDS011;23486;51.956;5.888;2023-07-16T09:03:20;9.75;;;4.05;;
37641;SDS011;23486;51.956;5.888;2023-07-16T09:05:46;10.30;;;3.92;;
37641;SDS011;23486;51.956;5.888;2023-07-16T09:08:13;9.18;;;4.15;;
37641;SDS011;23486;51.956;5.888;2023-07-16T09:10:41;6.97;;;3.28;;
37641;SDS011;23486;51.956;5.888;2023-07-16T09:13:07;12.00;;;4.10;;
37641;SDS011;23486;51.956;5.888;2023-07-16T09:15:33;7.75;;;3.60;;
37641;SDS011;23486;51.956;5.888;2023-07-16T09:17:59;10.25;;;4.65;;
37641;SDS011;23486;51.956;5.888;2023-07-16T09:20:25;10.82;;;4.03;;
37641;SDS011;23486;51.956;5.888;2023-07-16T09:22:55;10.43;;;3.70;;
37641;SDS011;23486;51.956;5.888;2023-07-16T09:25:25;6.53;;;3.50;;
37641;SDS011;23486;51.956;5.888;2023-07-16T09:27:52;6.90;;;2.95;;
37641;SDS011;23486;51.956;5.888;2023-07-16T09:30:18;9.73;;;3.25;;
37641;SDS011;23486;51.956;5.888;2023-07-16T09:32:44;6.63;;;2.92;;
37641;SDS011;23486;51.956;5.888;2023-07-16T09:35:14;6.88;;;2.60;;
37641;SDS011;23486;51.956;5.888;2023-07-16T09:37:41;7.60;;;2.70;;
37641;SDS011;23486;51.956;5.888;2023-07-16T09:40:08;8.07;;;3.42;;
37641;SDS011;23486;51.956;5.888;2023-07-16T09:42:39;7.43;;;2.88;;
37641;SDS011;23486;51.956;5.888;2023-07-16T09:45:07;8.68;;;3.55;;
37641;SDS011;23486;51.956;5.888;2023-07-16T09:47:38;6.43;;;3.10;;
37641;SDS011;23486;51.956;5.888;2023-07-16T09:50:04;9.30;;;3.38;;
37641;SDS011;23486;51.956;5.888;2023-07-16T09:52:31;7.65;;;2.75;;
37641;SDS011;23486;51.956;5.888;2023-07-16T09:54:58;8.10;;;3.08;;
37641;SDS011;23486;51.956;5.888;2023-07-16T09:57:26;7.05;;;3.63;;
37641;SDS011;23486;51.956;5.888;2023-07-16T09:59:55;8.57;;;3.40;;
37641;SDS011;23486;51.956;5.888;2023-07-16T10:02:23;5.72;;;2.53;;
37641;SDS011;23486;51.956;5.888;2023-07-16T10:04:49;7.82;;;2.80;;
37641;SDS011;23486;51.956;5.888;2023-07-16T10:07:19;8.02;;;2.90;;
37641;SDS011;23486;51.956;5.888;2023-07-16T10:09:53;7.05;;;3.13;;
37641;SDS011;23486;51.956;5.888;2023-07-16T10:12:21;7.57;;;2.58;;
37641;SDS011;23486;51.956;5.888;2023-07-16T10:14:49;6.70;;;2.67;;
37641;SDS011;23486;51.956;5.888;2023-07-16T10:17:18;6.63;;;2.58;;
37641;SDS011;23486;51.956;5.888;2023-07-16T10:19:51;7.03;;;2.60;;
37641;SDS011;23486;51.956;5.888;2023-07-16T10:22:30;8.60;;;2.95;;
37641;SDS011;23486;51.956;5.888;2023-07-16T10:24:59;9.00;;;3.08;;
37641;SDS011;23486;51.956;5.888;2023-07-16T10:27:26;6.07;;;2.22;;
37641;SDS011;23486;51.956;5.888;2023-07-16T10:29:56;7.10;;;2.53;;
37641;SDS011;23486;51.956;5.888;2023-07-16T10:32:25;5.53;;;2.45;;
37641;SDS011;23486;51.956;5.888;2023-07-16T10:34:53;7.00;;;2.22;;
37641;SDS011;23486;51.956;5.888;2023-07-16T10:37:19;6.38;;;2.80;;
37641;SDS011;23486;51.956;5.888;2023-07-16T10:39:48;8.43;;;2.67;;
37641;SDS011;23486;51.956;5.888;2023-07-16T10:42:15;7.50;;;3.10;;
37641;SDS011;23486;51.956;5.888;2023-07-16T10:44:41;10.93;;;3.08;;
37641;SDS011;23486;51.956;5.888;2023-07-16T10:47:07;6.15;;;2.10;;
37641;SDS011;23486;51.956;5.888;2023-07-16T10:49:35;5.22;;;2.35;;
37641;SDS011;23486;51.956;5.888;2023-07-16T10:52:01;6.63;;;2.25;;
37641;SDS011;23486;51.956;5.888;2023-07-16T10:54:26;5.70;;;1.95;;
37641;SDS011;23486;51.956;5.888;2023-07-16T10:56:52;6.10;;;2.17;;
37641;SDS011;23486;51.956;5.888;2023-07-16T10:59:18;6.18;;;2.08;;
37641;SDS011;23486;51.956;5.888;2023-07-16T11:01:44;5.85;;;2.22;;
37641;SDS011;23486;51.956;5.888;2023-07-16T11:04:10;6.40;;;2.50;;
37641;SDS011;23486;51.956;5.888;2023-07-16T11:06:36;5.05;;;2.08;;
37641;SDS011;23486;51.956;5.888;2023-07-16T11:09:08;5.30;;;1.77;;
37641;SDS011;23486;51.956;5.888;2023-07-16T11:11:34;5.00;;;2.03;;
37641;SDS011;23486;51.956;5.888;2023-07-16T11:14:00;6.85;;;2.13;;
37641;SDS011;23486;51.956;5.888;2023-07-16T11:16:32;5.28;;;1.67;;
37641;SDS011;23486;51.956;5.888;2023-07-16T11:19:00;6.05;;;1.70;;
37641;SDS011;23486;51.956;5.888;2023-07-16T11:21:28;6.93;;;1.67;;
37641;SDS011;23486;51.956;5.888;2023-07-16T11:23:54;5.97;;;2.10;;
37641;SDS011;23486;51.956;5.888;2023-07-16T11:26:20;5.38;;;2.60;;
37641;SDS011;23486;51.956;5.888;2023-07-16T11:28:45;6.10;;;2.20;;
37641;SDS011;23486;51.956;5.888;2023-07-16T11:31:14;8.93;;;1.98;;
37641;SDS011;23486;51.956;5.888;2023-07-16T11:33:42;5.40;;;2.08;;
37641;SDS011;23486;51.956;5.888;2023-07-16T11:36:08;5.32;;;2.25;;
37641;SDS011;23486;51.956;5.888;2023-07-16T11:38:37;6.93;;;2.25;;
37641;SDS011;23486;51.956;5.888;2023-07-16T11:41:03;6.47;;;1.77;;
37641;SDS011;23486;51.956;5.888;2023-07-16T11:43:33;3.72;;;1.52;;
37641;SDS011;23486;51.956;5.888;2023-07-16T11:46:02;5.43;;;1.95;;
37641;SDS011;23486;51.956;5.888;2023-07-16T11:48:28;4.00;;;1.35;;
37641;SDS011;23486;51.956;5.888;2023-07-16T11:50:54;6.57;;;1.48;;
37641;SDS011;23486;51.956;5.888;2023-07-16T11:53:19;6.22;;;1.92;;
37641;SDS011;23486;51.956;5.888;2023-07-16T11:55:45;6.68;;;2.00;;
37641;SDS011;23486;51.956;5.888;2023-07-16T11:58:11;6.90;;;2.90;;
37641;SDS011;23486;51.956;5.888;2023-07-16T12:00:36;5.28;;;1.95;;
37641;SDS011;23486;51.956;5.888;2023-07-16T12:03:02;6.18;;;1.83;;
37641;SDS011;23486;51.956;5.888;2023-07-16T12:05:28;4.65;;;1.95;;
37641;SDS011;23486;51.956;5.888;2023-07-16T12:07:53;5.93;;;2.17;;
37641;SDS011;23486;51.956;5.888;2023-07-16T12:10:19;4.22;;;1.83;;
37641;SDS011;23486;51.956;5.888;2023-07-16T12:12:46;6.50;;;1.75;;
37641;SDS011;23486;51.956;5.888;2023-07-16T12:15:11;5.47;;;1.48;;
37641;SDS011;23486;51.956;5.888;2023-07-16T12:17:37;9.77;;;1.83;;
37641;SDS011;23486;51.956;5.888;2023-07-16T12:20:03;5.35;;;1.88;;
37641;SDS011;23486;51.956;5.888;2023-07-16T12:22:29;5.35;;;2.65;;
37641;SDS011;23486;51.956;5.888;2023-07-16T12:24:55;7.05;;;1.83;;
37641;SDS011;23486;51.956;5.888;2023-07-16T12:27:22;4.78;;;1.80;;
37641;SDS011;23486;51.956;5.888;2023-07-16T12:29:48;3.92;;;1.80;;
37641;SDS011;23486;51.956;5.888;2023-07-16T12:32:13;5.93;;;2.38;;
37641;SDS011;23486;51.956;5.888;2023-07-16T12:34:39;6.70;;;1.95;;
37641;SDS011;23486;51.956;5.888;2023-07-16T12:37:05;4.22;;;2.03;;
37641;SDS011;23486;51.956;5.888;2023-07-16T12:39:31;4.45;;;1.85;;
37641;SDS011;23486;51.956;5.888;2023-07-16T12:41:57;6.00;;;1.92;;
37641;SDS011;23486;51.956;5.888;2023-07-16T12:44:23;8.15;;;2.00;;
37641;SDS011;23486;51.956;5.888;2023-07-16T12:46:49;5.35;;;1.70;;
37641;SDS011;23486;51.956;5.888;2023-07-16T12:49:14;5.75;;;2.28;;
37641;SDS011;23486;51.956;5.888;2023-07-16T12:51:40;5.30;;;1.98;;
37641;SDS011;23486;51.956;5.888;2023-07-16T12:54:06;3.95;;;1.40;;
37641;SDS011;23486;51.956;5.888;2023-07-16T12:56:31;5.60;;;1.85;;
37641;SDS011;23486;51.956;5.888;2023-07-16T12:58:57;3.55;;;1.38;;
37641;SDS011;23486;51.956;5.888;2023-07-16T13:01:23;4.78;;;1.58;;
37641;SDS011;23486;51.956;5.888;2023-07-16T13:03:49;5.38;;;1.63;;
37641;SDS011;23486;51.956;5.888;2023-07-16T13:06:14;5.28;;;1.80;;
37641;SDS011;23486;51.956;5.888;2023-07-16T13:08:40;6.03;;;1.95;;
37641;SDS011;23486;51.956;5.888;2023-07-16T13:11:06;3.70;;;1.40;;
37641;SDS011;23486;51.956;5.888;2023-07-16T13:13:31;5.75;;;1.70;;
37641;SDS011;23486;51.956;5.888;2023-07-16T13:15:57;3.28;;;1.40;;
37641;SDS011;23486;51.956;5.888;2023-07-16T13:18:24;5.40;;;1.70;;
37641;SDS011;23486;51.956;5.888;2023-07-16T13:20:49;5.40;;;1.38;;
37641;SDS011;23486;51.956;5.888;2023-07-16T13:23:15;5.00;;;1.40;;
37641;SDS011;23486;51.956;5.888;2023-07-16T13:25:41;3.42;;;1.13;;
37641;SDS011;23486;51.956;5.888;2023-07-16T13:28:07;3.97;;;1.35;;
37641;SDS011;23486;51.956;5.888;2023-07-16T13:30:33;5.70;;;1.42;;
37641;SDS011;23486;51.956;5.888;2023-07-16T13:32:58;4.80;;;1.50;;
37641;SDS011;23486;51.956;5.888;2023-07-16T13:35:26;5.55;;;1.65;;
37641;SDS011;23486;51.956;5.888;2023-07-16T13:37:51;5.97;;;1.85;;
37641;SDS011;23486;51.956;5.888;2023-07-16T13:40:17;4.55;;;1.75;;
37641;SDS011;23486;51.956;5.888;2023-07-16T13:42:45;4.85;;;1.52;;
37641;SDS011;23486;51.956;5.888;2023-07-16T13:45:13;4.38;;;1.20;;
37641;SDS011;23486;51.956;5.888;2023-07-16T13:47:39;4.07;;;1.30;;
37641;SDS011;23486;51.956;5.888;2023-07-16T13:50:05;3.70;;;0.80;;
37641;SDS011;23486;51.956;5.888;2023-07-16T13:52:31;3.17;;;1.02;;
37641;SDS011;23486;51.956;5.888;2023-07-16T13:54:57;6.13;;;1.55;;
37641;SDS011;23486;51.956;5.888;2023-07-16T13:57:22;2.30;;;0.70;;
37641;SDS011;23486;51.956;5.888;2023-07-16T13:59:48;3.55;;;0.85;;
37641;SDS011;23486;51.956;5.888;2023-07-16T14:02:14;3.28;;;0.90;;
37641;SDS011;23486;51.956;5.888;2023-07-16T14:04:39;4.93;;;0.90;;
37641;SDS011;23486;51.956;5.888;2023-07-16T14:07:05;3.70;;;0.70;;
37641;SDS011;23486;51.956;5.888;2023-07-16T14:09:31;3.13;;;0.70;;
37641;SDS011;23486;51.956;5.888;2023-07-16T14:11:56;2.80;;;0.82;;
37641;SDS011;23486;51.956;5.888;2023-07-16T14:14:22;3.00;;;0.73;;
37641;SDS011;23486;51.956;5.888;2023-07-16T14:16:48;4.90;;;1.08;;
37641;SDS011;23486;51.956;5.888;2023-07-16T14:19:13;3.25;;;0.80;;
37641;SDS011;23486;51.956;5.888;2023-07-16T14:21:41;2.53;;;0.60;;
37641;SDS011;23486;51.956;5.888;2023-07-16T14:24:07;2.70;;;0.80;;
37641;SDS011;23486;51.956;5.888;2023-07-16T14:26:33;2.55;;;0.52;;
37641;SDS011;23486;51.956;5.888;2023-07-16T14:28:59;3.53;;;0.57;;
37641;SDS011;23486;51.956;5.888;2023-07-16T14:31:25;2.33;;;0.50;;
37641;SDS011;23486;51.956;5.888;2023-07-16T14:33:50;2.35;;;0.60;;
37641;SDS011;23486;51.956;5.888;2023-07-16T14:36:16;3.83;;;0.90;;
37641;SDS011;23486;51.956;5.888;2023-07-16T14:38:42;3.70;;;0.63;;
37641;SDS011;23486;51.956;5.888;2023-07-16T14:41:08;3.70;;;0.60;;
37641;SDS011;23486;51.956;5.888;2023-07-16T14:43:33;4.07;;;0.52;;